Rio Vista Municipal (O88)
Rio Vista, CA
Field Elevation: 22
Lat: 38°11.60N  Long: 121°42.22W
CTAF/Unicom Freq: 122.7250
   
     For Weather-by-Phone, call (707) 374-5396
Weather Advisories
2016-12-03   04:32 Z
Altimeter 30.19" Hg
Wind 300° @ 12 KT
Gusts 18 KT
Visibility 10 SM
Ceiling CLR
Temperature 11° C (52° F)
Dewpoint -1° C (30° F)
Relative Humidity 43%
Density Altitude --
Condensation Altitude 6,100 feet
Wind and Runways
Indicated Runway = 33
Headwind = 10 kt
Crosswind = 6 kt
History
 
 
 
More Info
All DigiWx sites map
NOAA Forecast
 
Airport IQ 5010
(DUC) Stack Farm
(CA37) Dominican
 
about DigiWx
 
FAA Disclaimer: The data displayed is for advisory purposes only and is not to be used for flight planning or operations. For official data, please call (707) 374-5396 to hear the current automated AWOS voice message.
  METAR O88 030432Z AUTO 30012G18KT VIS 10 SM CLR 11/M01 A3019